Time;durP1;ratioP1;P1;durP2;ratioP2;P2;SDS_P1;SDS_P2;PMS_P1;PMS_P2;Temp;Humidity;BMP_temperature;BMP_pressure;BME280_temperature;BME280_humidity;BME280_pressure;Samples;Min_cycle;Max_cycle;Signal;HPM_P1;HPM_P2
2020/12/16 00:01:29;;;;;;;26.60;15.27;;;9.00;94.90;;;;;;5010498;28;20493;-76
2020/12/16 00:03:55;;;;;;;26.15;15.98;;;9.00;94.80;;;;;;5010467;28;20049;-76
2020/12/16 00:06:20;;;;;;;27.38;16.38;;;9.00;94.80;;;;;;5010949;28;20049;-76
2020/12/16 00:08:47;;;;;;;26.85;15.02;;;9.00;94.80;;;;;;5010583;28;20140;-77
2020/12/16 00:11:12;;;;;;;31.70;17.95;;;9.00;94.80;;;;;;5010847;28;20117;-76
2020/12/16 00:13:38;;;;;;;27.30;15.73;;;9.00;94.80;;;;;;5009592;28;20176;-76
2020/12/16 00:16:06;;;;;;;30.60;17.48;;;9.00;94.80;;;;;;5010656;28;20057;-77
2020/12/16 00:18:32;;;;;;;28.15;16.70;;;9.00;94.80;;;;;;5010726;28;20038;-76
2020/12/16 00:20:57;;;;;;;31.45;16.83;;;9.00;94.70;;;;;;5010052;28;20042;-76
2020/12/16 00:23:23;;;;;;;28.73;17.25;;;9.00;94.70;;;;;;5010032;28;20045;-76
2020/12/16 00:25:49;;;;;;;27.85;15.82;;;9.00;94.80;;;;;;5010160;28;20041;-76
2020/12/16 00:28:15;;;;;;;31.65;17.30;;;9.00;94.80;;;;;;5010610;28;20038;-76
2020/12/16 00:30:40;;;;;;;30.80;17.65;;;9.00;94.70;;;;;;5009321;28;20038;-76
2020/12/16 00:33:06;;;;;;;30.65;16.65;;;9.00;94.70;;;;;;5008121;28;20446;-76
2020/12/16 00:35:32;;;;;;;30.20;16.42;;;9.00;94.70;;;;;;5010269;28;20038;-76
2020/12/16 00:37:59;;;;;;;30.55;17.38;;;9.00;94.70;;;;;;5010000;28;20044;-75
2020/12/16 00:40:25;;;;;;;29.02;17.17;;;9.00;94.70;;;;;;5010315;28;20073;-76
2020/12/16 00:42:51;;;;;;;31.13;17.13;;;8.90;94.60;;;;;;5009990;28;20045;-77
2020/12/16 00:45:18;;;;;;;29.70;15.52;;;8.90;94.70;;;;;;5008763;28;20410;-76
2020/12/16 00:47:44;;;;;;;29.42;16.40;;;8.90;94.80;;;;;;5010375;28;20034;-77
2020/12/16 00:50:11;;;;;;;33.85;17.98;;;8.90;94.70;;;;;;4992383;28;20049;-76
2020/12/16 00:52:37;;;;;;;27.98;16.38;;;8.90;94.70;;;;;;5009761;28;20095;-76
2020/12/16 00:55:07;;;;;;;32.77;18.10;;;9.00;94.80;;;;;;5009041;28;20522;-77
2020/12/16 00:57:35;;;;;;;34.35;18.55;;;8.90;94.70;;;;;;5008884;28;20026;-76
2020/12/16 01:00:08;;;;;;;31.38;16.75;;;8.90;94.70;;;;;;5008811;28;20402;-77
2020/12/16 01:02:37;;;;;;;28.70;15.88;;;8.90;94.90;;;;;;5008077;28;20038;-77
2020/12/16 01:05:03;;;;;;;30.15;15.82;;;9.00;94.70;;;;;;5008912;28;20526;-76
2020/12/16 01:07:29;;;;;;;28.42;15.98;;;9.00;94.70;;;;;;5008464;28;20038;-76
2020/12/16 01:09:55;;;;;;;30.85;16.70;;;8.90;94.70;;;;;;4992612;28;20034;-76
2020/12/16 01:12:22;;;;;;;32.58;17.38;;;9.00;94.70;;;;;;4991985;28;20061;-76
2020/12/16 01:14:47;;;;;;;33.65;18.23;;;9.00;94.70;;;;;;4992013;28;20493;-76
2020/12/16 01:17:13;;;;;;;35.75;18.33;;;9.00;94.80;;;;;;4992328;28;20042;-76
2020/12/16 01:19:40;;;;;;;33.28;17.27;;;8.90;94.70;;;;;;4992235;28;20038;-76
2020/12/16 01:22:06;;;;;;;31.10;16.45;;;9.00;94.70;;;;;;5008094;28;20050;-76
2020/12/16 01:24:32;;;;;;;28.73;15.50;;;9.00;94.70;;;;;;4992372;28;20042;-76
2020/12/16 01:26:59;;;;;;;30.50;16.42;;;9.00;94.70;;;;;;5008320;28;20032;-76
2020/12/16 01:29:26;;;;;;;31.63;17.85;;;9.00;94.70;;;;;;5008748;28;20036;-76
2020/12/16 01:31:52;;;;;;;33.53;17.42;;;9.00;94.70;;;;;;4991486;28;20045;-74
2020/12/16 01:34:27;;;;;;;32.13;17.13;;;9.00;94.70;;;;;;5010054;28;20057;-76
2020/12/16 01:37:03;;;;;;;31.70;17.77;;;9.00;94.70;;;;;;5008190;28;20046;-76
2020/12/16 01:39:32;;;;;;;31.33;17.35;;;9.00;94.70;;;;;;5009242;28;20521;-70
2020/12/16 01:41:58;;;;;;;30.50;16.63;;;9.00;94.70;;;;;;5007633;28;20042;-70
2020/12/16 01:44:29;;;;;;;30.45;15.82;;;9.00;94.70;;;;;;5008726;28;20034;-70
2020/12/16 01:47:01;;;;;;;29.70;16.63;;;9.00;94.70;;;;;;5010269;28;20041;-70
2020/12/16 01:49:35;;;;;;;33.53;17.98;;;9.00;94.70;;;;;;5012176;28;20038;-70
2020/12/16 01:52:05;;;;;;;28.55;15.73;;;9.00;94.60;;;;;;4995042;28;20566;-70
2020/12/16 01:54:34;;;;;;;28.70;14.93;;;9.00;94.70;;;;;;5044679;28;20178;-70
2020/12/16 01:57:04;;;;;;;30.63;15.48;;;9.00;94.70;;;;;;4995877;28;20096;-70
2020/12/16 01:59:47;;;;;;;32.22;16.67;;;9.00;94.70;;;;;;5011577;28;20458;-70
2020/12/16 02:02:24;;;;;;;29.58;14.95;;;8.90;94.60;;;;;;5011346;28;20041;-70
2020/12/16 02:04:51;;;;;;;31.27;16.10;;;8.90;94.60;;;;;;5011191;28;20034;-70
2020/12/16 02:07:21;;;;;;;32.72;16.70;;;8.90;94.70;;;;;;4995518;28;20025;-70
2020/12/16 02:09:47;;;;;;;27.67;14.88;;;8.90;94.70;;;;;;5011252;28;20100;-70
2020/12/16 02:12:25;;;;;;;31.50;16.15;;;8.90;94.70;;;;;;5011128;28;20113;-70
2020/12/16 02:14:50;;;;;;;36.95;19.02;;;9.00;94.60;;;;;;4994637;28;20049;-70
2020/12/16 02:17:20;;;;;;;32.28;16.52;;;8.90;94.60;;;;;;5011539;28;20109;-70
2020/12/16 02:19:56;;;;;;;31.95;16.48;;;8.90;94.60;;;;;;5011101;28;20046;-70
2020/12/16 02:22:22;;;;;;;32.70;17.33;;;8.90;94.60;;;;;;5010931;28;20034;-69
2020/12/16 02:25:10;;;;;;;34.03;16.75;;;8.90;94.60;;;;;;5012252;28;20030;-71
2020/12/16 02:27:42;;;;;;;40.97;18.77;;;8.90;94.70;;;;;;5011253;28;20037;-70
2020/12/16 02:30:16;;;;;;;35.72;17.52;;;8.90;94.70;;;;;;5010957;28;20398;-70
2020/12/16 02:33:01;;;;;;;34.45;17.55;;;8.90;94.70;;;;;;5011668;28;20573;-70
2020/12/16 02:35:34;;;;;;;33.95;17.63;;;8.90;94.70;;;;;;4995935;28;20053;-70
2020/12/16 02:38:09;;;;;;;33.45;16.13;;;8.80;94.70;;;;;;5010618;28;20040;-70
2020/12/16 02:40:35;;;;;;;30.25;15.85;;;8.90;94.70;;;;;;5011056;28;20041;-70
2020/12/16 02:43:01;;;;;;;29.60;14.63;;;8.90;94.60;;;;;;5010423;28;20034;-70
2020/12/16 02:45:28;;;;;;;29.42;14.35;;;8.90;94.60;;;;;;5010661;28;20042;-70
2020/12/16 02:48:02;;;;;;;34.42;17.13;;;8.90;94.70;;;;;;5012379;28;20129;-70
2020/12/16 02:50:29;;;;;;;36.75;17.85;;;8.90;94.70;;;;;;5010287;28;20113;-70
2020/12/16 02:52:55;;;;;;;32.88;16.77;;;8.90;94.70;;;;;;5010114;28;20117;-69
2020/12/16 02:55:22;;;;;;;31.42;15.85;;;8.90;94.70;;;;;;5010301;28;20068;-70
2020/12/16 02:58:00;;;;;;;42.63;18.83;;;8.90;94.70;;;;;;5011862;28;20045;-70
2020/12/16 03:00:27;;;;;;;35.15;18.40;;;8.90;94.70;;;;;;5010339;28;20041;-70
2020/12/16 03:03:04;;;;;;;33.78;16.35;;;8.90;94.70;;;;;;5009970;28;20041;-70
2020/12/16 03:05:52;;;;;;;28.88;15.00;;;8.90;94.70;;;;;;5008500;28;20042;-70
2020/12/16 03:08:33;;;;;;;32.20;16.55;;;8.90;94.70;;;;;;4996073;28;20034;-71
2020/12/16 03:11:03;;;;;;;29.30;15.68;;;8.90;94.70;;;;;;5010485;28;20446;-70
2020/12/16 03:13:29;;;;;;;37.08;16.83;;;8.90;94.70;;;;;;5009717;28;20432;-70
2020/12/16 03:15:55;;;;;;;33.08;16.33;;;8.80;94.60;;;;;;5010073;28;20060;-69
2020/12/16 03:18:22;;;;;;;30.33;15.30;;;8.90;94.70;;;;;;5010438;28;20545;-70
2020/12/16 03:20:53;;;;;;;30.95;14.77;;;8.90;94.70;;;;;;5009940;28;20038;-70
2020/12/16 03:23:19;;;;;;;31.20;15.95;;;8.90;94.70;;;;;;5009713;28;20050;-70
2020/12/16 03:26:08;;;;;;;37.97;17.70;;;8.90;94.70;;;;;;5010893;28;20033;-70
2020/12/16 03:28:53;;;;;;;34.75;16.50;;;8.90;94.60;;;;;;5009854;28;20163;-70
2020/12/16 03:31:50;;;;;;;33.03;16.27;;;8.90;94.60;;;;;;5009713;28;20038;-70
2020/12/16 03:34:36;;;;;;;143.77;42.53;;;8.80;94.60;;;;;;5009638;28;20034;-70
2020/12/16 03:37:12;;;;;;;43.55;19.23;;;8.80;94.60;;;;;;5009505;28;20091;-73
2020/12/16 03:39:38;;;;;;;46.03;20.55;;;8.80;94.60;;;;;;4993621;28;20447;-70
2020/12/16 03:42:06;;;;;;;49.05;20.63;;;8.80;94.60;;;;;;4993252;28;20049;-69
2020/12/16 03:44:32;;;;;;;45.85;18.98;;;8.80;94.60;;;;;;5009389;28;20045;-70
2020/12/16 03:46:59;;;;;;;36.72;16.38;;;8.80;94.60;;;;;;4993722;28;20058;-70
2020/12/16 03:49:27;;;;;;;32.42;14.25;;;8.80;94.80;;;;;;4993179;28;20040;-70
2020/12/16 03:51:56;;;;;;;32.83;16.10;;;8.80;94.60;;;;;;5009343;28;20184;-70
2020/12/16 03:54:27;;;;;;;32.95;14.82;;;8.80;94.60;;;;;;5009841;28;20630;-70
2020/12/16 03:57:13;;;;;;;28.50;14.15;;;8.80;94.60;;;;;;5010549;28;20044;-70
2020/12/16 04:00:10;;;;;;;30.10;13.60;;;8.80;94.60;;;;;;5008929;28;20125;-70
2020/12/16 04:02:42;;;;;;;30.17;15.05;;;8.80;94.60;;;;;;5010415;28;20049;-69
2020/12/16 04:05:18;;;;;;;34.60;16.67;;;8.80;94.60;;;;;;5009136;28;20030;-70
2020/12/16 04:07:44;;;;;;;30.73;14.73;;;8.80;94.60;;;;;;5042501;28;20068;-70
2020/12/16 04:10:26;;;;;;;33.45;15.55;;;8.80;94.60;;;;;;4994701;28;20105;-70
2020/12/16 04:12:52;;;;;;;31.08;15.65;;;8.80;94.60;;;;;;5008055;28;20204;-70
2020/12/16 04:15:18;;;;;;;36.20;17.08;;;8.80;94.60;;;;;;5008956;28;20499;-69
2020/12/16 04:17:44;;;;;;;34.25;15.80;;;8.80;94.60;;;;;;5009230;28;20030;-70
2020/12/16 04:20:15;;;;;;;;;;;8.80;94.60;;;;;;5009052;28;20033;-71
2020/12/16 04:22:51;;;;;;;34.53;14.95;;;8.70;94.60;;;;;;5011042;28;20329;-70
2020/12/16 04:25:17;;;;;;;33.25;14.48;;;8.70;94.60;;;;;;4993539;28;20108;-70
2020/12/16 04:27:43;;;;;;;32.90;15.43;;;8.70;94.50;;;;;;5012991;28;20060;-67
2020/12/16 04:30:09;;;;;;;29.52;14.43;;;8.70;94.50;;;;;;4999361;28;20041;-68
2020/12/16 04:32:43;;;;;;;30.35;14.63;;;8.70;94.60;;;;;;5017914;28;20503;-69
2020/12/16 04:35:11;;;;;;;40.72;17.20;;;8.70;94.60;;;;;;5022715;28;20111;-69
2020/12/16 04:37:41;;;;;;;35.53;16.30;;;8.80;94.60;;;;;;5011905;28;20525;-69
2020/12/16 04:40:07;;;;;;;38.63;17.10;;;8.70;94.50;;;;;;5023775;28;20034;-68
2020/12/16 04:42:32;;;;;;;34.50;15.07;;;8.70;94.50;;;;;;5024558;28;20037;-68
2020/12/16 04:45:00;;;;;;;36.03;15.17;;;8.70;94.50;;;;;;5009892;28;20038;-69
2020/12/16 04:47:30;;;;;;;34.72;15.15;;;8.70;94.60;;;;;;5041264;28;20034;-68
2020/12/16 04:50:06;;;;;;;39.60;17.30;;;8.70;94.50;;;;;;4997295;28;20033;-68
2020/12/16 04:52:44;;;;;;;36.20;16.90;;;8.70;94.60;;;;;;5017546;28;20077;-68
2020/12/16 04:55:17;;;;;;;35.07;15.63;;;8.70;94.60;;;;;;5011689;28;20085;-68
2020/12/16 04:58:00;;;;;;;34.63;15.93;;;8.70;94.60;;;;;;4993090;28;20470;-68
2020/12/16 05:00:27;;;;;;;46.70;17.83;;;8.70;94.60;;;;;;5041823;28;20042;-68
2020/12/16 05:03:09;;;;;;;38.13;16.47;;;8.70;94.60;;;;;;5012614;28;20064;-70
2020/12/16 05:05:52;;;;;;;36.20;16.00;;;8.70;94.60;;;;;;5020082;28;20181;-68
2020/12/16 05:08:18;;;;;;;34.47;14.73;;;8.60;94.50;;;;;;5017170;28;20132;-69
2020/12/16 05:10:48;;;;;;;35.07;15.47;;;8.70;94.50;;;;;;5027667;28;20512;-68
2020/12/16 05:13:16;;;;;;;34.00;15.37;;;8.70;94.50;;;;;;5028238;28;20122;-69
2020/12/16 05:15:45;;;;;;;30.92;14.80;;;8.60;94.50;;;;;;5028044;28;20041;-69
2020/12/16 05:18:25;;;;;;;31.67;14.93;;;8.60;94.60;;;;;;5028575;28;20046;-68
2020/12/16 05:20:53;;;;;;;30.70;14.00;;;8.60;94.60;;;;;;5030414;28;20051;-69
2020/12/16 05:23:23;;;;;;;31.23;14.10;;;8.60;94.60;;;;;;5033122;28;20045;-68
2020/12/16 05:26:02;;;;;;;38.67;15.85;;;8.60;94.60;;;;;;5033266;28;20450;-69
2020/12/16 05:28:39;;;;;;;41.45;18.40;;;8.60;94.70;;;;;;5032248;28;20041;-69
2020/12/16 05:31:07;;;;;;;42.50;18.10;;;8.60;94.70;;;;;;5031873;28;20092;-68
2020/12/16 05:33:43;;;;;;;40.42;17.55;;;8.70;94.60;;;;;;5031788;28;20044;-68
2020/12/16 05:36:10;;;;;;;38.20;16.93;;;8.70;94.60;;;;;;5031740;28;20425;-69
2020/12/16 05:38:52;;;;;;;38.72;16.55;;;8.60;94.60;;;;;;5033349;28;20037;-68
2020/12/16 05:41:29;;;;;;;40.87;18.07;;;8.60;94.60;;;;;;5032917;28;20037;-70
2020/12/16 05:44:15;;;;;;;40.63;17.47;;;8.60;94.60;;;;;;5030951;28;20128;-69
2020/12/16 05:46:41;;;;;;;42.33;18.80;;;8.60;94.60;;;;;;5031817;28;20037;-69
2020/12/16 05:49:28;;;;;;;42.08;18.65;;;8.60;94.60;;;;;;5032787;28;20518;-69
2020/12/16 05:51:58;;;;;;;42.93;18.27;;;8.60;94.60;;;;;;5031085;28;20037;-69
2020/12/16 05:54:24;;;;;;;40.92;18.15;;;8.70;94.60;;;;;;5032806;28;20038;-69
2020/12/16 05:57:09;;;;;;;37.15;15.68;;;8.60;94.60;;;;;;5033011;28;20033;-69
2020/12/16 05:59:35;;;;;;;30.13;13.50;;;8.60;94.60;;;;;;5032595;28;20033;-69
2020/12/16 06:02:03;;;;;;;31.23;14.37;;;8.60;94.60;;;;;;5032329;28;20382;-69
2020/12/16 06:04:33;;;;;;;37.03;16.10;;;8.60;94.50;;;;;;5032461;28;20045;-68
2020/12/16 06:06:59;;;;;;;32.80;14.50;;;8.60;94.60;;;;;;5032820;28;20107;-69
2020/12/16 06:09:24;;;;;;;44.50;19.20;;;8.60;94.70;;;;;;5032519;28;20502;-70
2020/12/16 06:11:54;;;;;;;45.13;19.65;;;8.60;94.90;;;;;;5026954;28;20212;-69
2020/12/16 06:14:21;;;;;;;43.28;18.75;;;8.60;94.70;;;;;;5011333;28;20042;-70
2020/12/16 06:16:48;;;;;;;39.23;15.70;;;8.60;94.90;;;;;;5012892;28;20120;-69
2020/12/16 06:19:32;;;;;;;34.28;15.57;;;8.60;94.60;;;;;;5013580;28;20415;-69
2020/12/16 06:22:06;;;;;;;31.37;14.07;;;8.60;94.60;;;;;;5011136;28;20057;-69
2020/12/16 06:24:44;;;;;;;45.67;20.45;;;8.60;94.60;;;;;;5013341;28;20049;-69
2020/12/16 06:27:11;;;;;;;50.43;20.17;;;8.60;94.70;;;;;;5013035;28;20502;-69
2020/12/16 06:29:48;;;;;;;45.67;19.53;;;8.60;94.70;;;;;;5013194;28;20092;-69
2020/12/16 06:32:25;;;;;;;47.53;20.93;;;8.60;94.70;;;;;;5011462;28;20045;-69
2020/12/16 06:34:53;;;;;;;49.13;21.23;;;8.60;94.70;;;;;;5013281;28;20042;-69
2020/12/16 06:37:18;;;;;;;52.53;22.10;;;8.60;94.70;;;;;;5012729;28;20096;-69
2020/12/16 06:39:44;;;;;;;51.37;21.73;;;8.60;94.60;;;;;;5011753;28;20034;-69
2020/12/16 06:42:10;;;;;;;53.60;22.20;;;8.60;94.60;;;;;;5011943;28;20045;-69
2020/12/16 06:44:35;;;;;;;56.90;23.80;;;8.50;94.60;;;;;;4995397;28;20499;-70
2020/12/16 06:47:03;;;;;;;51.47;22.47;;;8.50;94.60;;;;;;5012905;28;20042;-68
2020/12/16 06:49:31;;;;;;;53.80;23.33;;;8.50;94.60;;;;;;5012631;28;20065;-69
2020/12/16 06:52:08;;;;;;;57.87;23.73;;;8.50;94.60;;;;;;5010768;28;20129;-69
2020/12/16 06:54:44;;;;;;;63.63;24.20;;;8.50;94.90;;;;;;5012392;28;20033;-70
2020/12/16 06:57:11;;;;;;;65.87;25.37;;;8.50;94.70;;;;;;5012889;28;20053;-69
2020/12/16 06:59:50;;;;;;;64.27;26.27;;;8.50;94.90;;;;;;5012259;28;20042;-69
2020/12/16 07:02:25;;;;;;;68.20;25.67;;;8.50;94.70;;;;;;5010572;28;20045;-69
2020/12/16 07:04:51;;;;;;;66.10;25.60;;;8.50;94.70;;;;;;5011077;28;20052;-69
2020/12/16 07:07:55;;;;;;;71.97;27.30;;;8.50;94.70;;;;;;5012488;28;20034;-69
2020/12/16 07:10:48;;;;;;;70.83;26.50;;;8.50;94.70;;;;;;5011168;28;20042;-69
2020/12/16 07:13:31;;;;;;;71.17;26.87;;;8.50;94.80;;;;;;5008229;28;20041;-69
2020/12/16 07:16:05;;;;;;;70.67;26.63;;;8.50;94.80;;;;;;5012419;28;20065;-69
2020/12/16 07:18:48;;;;;;;72.90;27.03;;;8.50;94.80;;;;;;5012046;28;20052;-69
2020/12/16 07:21:25;;;;;;;74.80;27.63;;;8.50;94.80;;;;;;5010917;28;20042;-69
2020/12/16 07:23:58;;;;;;;72.07;27.50;;;8.50;94.80;;;;;;5011355;28;20386;-69
2020/12/16 07:26:48;;;;;;;67.83;26.23;;;8.50;94.80;;;;;;5011248;28;20072;-70
2020/12/16 07:29:22;;;;;;;71.33;27.93;;;8.50;94.80;;;;;;5009950;28;20041;-71
2020/12/16 07:31:54;;;;;;;74.00;28.03;;;8.60;94.90;;;;;;5009641;28;20044;-71
2020/12/16 07:34:19;;;;;;;70.87;27.20;;;8.50;94.80;;;;;;5011546;28;20053;-69
2020/12/16 07:36:52;;;;;;;69.03;27.10;;;8.60;94.90;;;;;;5010574;28;20034;-69
2020/12/16 07:39:17;;;;;;;74.40;28.83;;;8.50;94.80;;;;;;5012292;28;20234;-76
2020/12/16 07:41:45;;;;;;;77.97;28.77;;;8.60;94.90;;;;;;5011393;28;20610;-76
2020/12/16 07:44:11;;;;;;;78.87;29.27;;;8.60;94.80;;;;;;5009697;28;20049;-76
2020/12/16 07:46:36;;;;;;;79.50;29.67;;;8.60;94.90;;;;;;5011375;28;20398;-76
2020/12/16 07:49:02;;;;;;;72.40;27.63;;;8.60;94.90;;;;;;5010550;28;20053;-76
2020/12/16 07:51:28;;;;;;;80.30;29.80;;;8.60;94.90;;;;;;5011343;28;20038;-76
2020/12/16 07:53:54;;;;;;;78.07;29.40;;;8.60;94.90;;;;;;5042927;28;20432;-75
2020/12/16 07:56:20;;;;;;;73.87;27.43;;;8.60;94.90;;;;;;5011632;28;20176;-76
2020/12/16 07:58:47;;;;;;;76.57;29.08;;;8.60;94.90;;;;;;5009709;28;20061;-75
2020/12/16 08:01:15;;;;;;;76.90;28.33;;;8.60;94.90;;;;;;4994009;28;20487;-75
2020/12/16 08:03:43;;;;;;;86.63;30.40;;;8.60;94.80;;;;;;5010590;28;20042;-75
2020/12/16 08:06:09;;;;;;;72.17;27.00;;;8.60;94.80;;;;;;5009789;28;20103;-75
2020/12/16 08:08:48;;;;;;;76.73;28.10;;;8.60;94.90;;;;;;5009298;28;20034;-76
2020/12/16 08:11:19;;;;;;;73.13;28.20;;;8.70;95.00;;;;;;5007888;28;20034;-76
2020/12/16 08:13:47;;;;;;;65.10;26.87;;;8.70;95.00;;;;;;5038077;28;20431;-75
2020/12/16 08:16:13;;;;;;;70.90;26.80;;;8.70;95.00;;;;;;5008967;28;20688;-75
2020/12/16 08:18:47;;;;;;;65.20;26.30;;;8.70;95.00;;;;;;5009422;28;20038;-75
2020/12/16 08:21:23;;;;;;;59.03;25.77;;;8.70;95.00;;;;;;4989610;28;20064;-76
2020/12/16 08:23:51;;;;;;;60.17;25.00;;;8.80;94.90;;;;;;5008266;28;20053;-75
2020/12/16 08:26:18;;;;;;;61.63;25.85;;;8.70;94.90;;;;;;5009855;28;20061;-75
2020/12/16 08:28:45;;;;;;;57.88;24.65;;;8.80;94.80;;;;;;5010274;28;20040;-75
2020/12/16 08:31:11;;;;;;;59.67;25.67;;;8.80;94.70;;;;;;5025307;28;20054;-75
2020/12/16 08:33:44;;;;;;;55.70;24.87;;;8.80;94.60;;;;;;5009505;28;20066;-75
2020/12/16 08:36:15;;;;;;;55.57;24.03;;;8.80;94.50;;;;;;5009944;28;20049;-75
2020/12/16 08:38:43;;;;;;;55.40;24.27;;;8.80;94.50;;;;;;5008665;28;20040;-75
2020/12/16 08:41:25;;;;;;;54.65;23.55;;;8.80;94.50;;;;;;5008771;28;20046;-75
2020/12/16 08:43:52;;;;;;;56.08;23.80;;;8.70;94.50;;;;;;5008121;28;20490;-75
2020/12/16 08:46:21;;;;;;;53.78;22.90;;;8.70;94.60;;;;;;5009692;28;20044;-76
2020/12/16 08:49:04;;;;;;;47.17;21.40;;;8.70;94.70;;;;;;5009267;28;20042;-75
2020/12/16 08:51:35;;;;;;;49.88;22.02;;;8.60;94.70;;;;;;5009209;28;20427;-75
2020/12/16 08:54:05;;;;;;;50.93;22.40;;;8.60;94.70;;;;;;5006641;28;20038;-75
2020/12/16 08:56:43;;;;;;;49.43;22.23;;;8.70;94.80;;;;;;5013736;28;20029;-75
2020/12/16 08:59:12;;;;;;;42.97;20.27;;;8.70;94.70;;;;;;5013088;28;20120;-75
2020/12/16 09:01:41;;;;;;;40.83;19.73;;;8.60;94.50;;;;;;5013966;28;20065;-75
2020/12/16 09:04:08;;;;;;;42.13;19.73;;;8.60;94.60;;;;;;5045851;28;20176;-74
2020/12/16 09:06:34;;;;;;;41.77;19.13;;;8.60;94.70;;;;;;5014345;28;20525;-74
2020/12/16 09:09:00;;;;;;;38.13;18.13;;;8.70;94.70;;;;;;5013122;28;20507;-74
2020/12/16 09:11:26;;;;;;;36.00;17.87;;;8.60;94.40;;;;;;5012941;28;20048;-74
2020/12/16 09:13:58;;;;;;;37.67;18.30;;;8.70;94.60;;;;;;5013112;28;20049;-74
2020/12/16 09:16:25;;;;;;;39.40;18.75;;;8.70;94.60;;;;;;5012532;28;20034;-75
2020/12/16 09:18:52;;;;;;;35.13;17.30;;;8.70;94.50;;;;;;5045986;28;20049;-74
2020/12/16 09:21:31;;;;;;;36.30;17.83;;;8.70;94.60;;;;;;5012403;28;20045;-74
2020/12/16 09:23:57;;;;;;;33.58;16.50;;;8.70;94.30;;;;;;5012319;28;20065;-75
2020/12/16 09:26:43;;;;;;;34.85;17.23;;;8.70;94.30;;;;;;5013297;28;20044;-74
2020/12/16 09:29:26;;;;;;;34.72;16.70;;;8.70;94.40;;;;;;5014035;28;20042;-74
2020/12/16 09:32:15;;;;;;;35.15;16.92;;;8.70;94.30;;;;;;5010685;28;20153;-74
2020/12/16 09:34:52;;;;;;;31.20;15.33;;;8.70;94.30;;;;;;5012328;28;20041;-74
2020/12/16 09:37:23;;;;;;;31.83;15.47;;;8.60;94.00;;;;;;5013363;28;20034;-74
2020/12/16 09:39:50;;;;;;;33.63;16.57;;;8.60;94.20;;;;;;5012557;28;20443;-75
2020/12/16 09:42:18;;;;;;;33.03;16.83;;;8.50;94.10;;;;;;5010559;28;20045;-74
2020/12/16 09:44:46;;;;;;;39.47;16.87;;;8.50;94.30;;;;;;5014904;28;20030;-75
2020/12/16 09:47:21;;;;;;;38.33;16.60;;;8.50;94.30;;;;;;4998093;28;20503;-75
2020/12/16 09:50:04;;;;;;;36.80;17.23;;;8.50;94.10;;;;;;5013754;28;20037;-75
2020/12/16 09:52:35;;;;;;;37.60;16.97;;;8.50;94.10;;;;;;5044461;28;20491;-74
2020/12/16 09:55:17;;;;;;;34.40;16.50;;;8.50;94.10;;;;;;5011698;28;20048;-74
2020/12/16 09:57:44;;;;;;;39.80;17.87;;;8.40;93.70;;;;;;5007249;28;20081;-75
2020/12/16 10:00:11;;;;;;;41.93;18.60;;;8.40;93.80;;;;;;5010732;28;20554;-75
2020/12/16 10:02:37;;;;;;;43.07;19.17;;;8.40;93.80;;;;;;5007601;28;20026;-74
2020/12/16 10:05:06;;;;;;;41.90;17.93;;;8.40;93.70;;;;;;5012348;28;20171;-75
2020/12/16 10:07:34;;;;;;;39.90;18.50;;;8.30;93.70;;;;;;5009406;28;20419;-74
2020/12/16 10:10:01;;;;;;;41.63;18.47;;;8.40;94.00;;;;;;5012188;28;20037;-75
2020/12/16 10:12:27;;;;;;;39.13;18.10;;;8.50;94.20;;;;;;5010222;28;20037;-74
2020/12/16 10:14:53;;;;;;;37.67;17.90;;;8.70;94.20;;;;;;5009680;28;20034;-75
2020/12/16 10:17:25;;;;;;;40.95;18.70;;;8.80;94.00;;;;;;5015842;28;20483;-75
2020/12/16 10:19:52;;;;;;;39.53;18.17;;;8.90;94.10;;;;;;5024261;28;20040;-75
2020/12/16 10:22:18;;;;;;;39.30;18.23;;;9.00;93.80;;;;;;5032326;28;20033;-75
2020/12/16 10:24:44;;;;;;;43.70;19.70;;;9.10;93.40;;;;;;5032650;28;20505;-74
2020/12/16 10:27:11;;;;;;;42.53;17.60;;;9.00;93.20;;;;;;5030756;28;20033;-75
2020/12/16 10:29:37;;;;;;;38.97;17.20;;;9.00;93.00;;;;;;5032751;28;20074;-75
2020/12/16 10:32:03;;;;;;;44.53;18.97;;;8.90;92.80;;;;;;5019002;28;20029;-76
2020/12/16 10:34:29;;;;;;;42.93;18.10;;;8.80;93.00;;;;;;5010504;28;20030;-74
2020/12/16 10:36:55;;;;;;;43.00;17.87;;;8.80;93.30;;;;;;5011418;28;20105;-74
2020/12/16 10:39:22;;;;;;;43.70;18.05;;;8.90;93.50;;;;;;5012431;28;20105;-74
2020/12/16 10:41:52;;;;;;;41.47;18.43;;;9.00;93.40;;;;;;5012149;28;20450;-75
2020/12/16 10:44:19;;;;;;;37.10;17.60;;;9.00;93.10;;;;;;5011075;28;20115;-75
2020/12/16 10:46:48;;;;;;;40.53;18.40;;;9.00;93.20;;;;;;5010947;28;20454;-75
2020/12/16 10:49:15;;;;;;;39.47;17.88;;;9.00;93.00;;;;;;5011772;28;20065;-74
2020/12/16 10:51:42;;;;;;;36.67;16.88;;;9.00;93.10;;;;;;5011903;28;20384;-75
2020/12/16 10:54:07;;;;;;;36.65;17.30;;;9.00;93.20;;;;;;5012273;28;20395;-75
2020/12/16 10:56:33;;;;;;;35.15;16.30;;;9.10;93.10;;;;;;5011870;28;20037;-75
2020/12/16 10:58:59;;;;;;;38.22;17.58;;;9.10;92.80;;;;;;5012280;28;20034;-75
2020/12/16 11:01:25;;;;;;;42.15;19.23;;;9.10;92.90;;;;;;5011568;28;20566;-75
2020/12/16 11:03:51;;;;;;;37.17;17.67;;;9.10;92.80;;;;;;5011626;28;20061;-75
2020/12/16 11:06:17;;;;;;;41.77;18.47;;;9.10;92.70;;;;;;5008743;28;20455;-75
2020/12/16 11:08:43;;;;;;;39.20;18.65;;;9.00;92.50;;;;;;5009175;28;20513;-76
2020/12/16 11:11:10;;;;;;;42.13;19.03;;;9.00;92.60;;;;;;5042373;28;20045;-75
2020/12/16 11:13:36;;;;;;;45.07;20.40;;;8.90;92.40;;;;;;5008316;28;20045;-74
2020/12/16 11:16:02;;;;;;;46.75;19.90;;;8.80;92.60;;;;;;5010485;28;20045;-75
2020/12/16 11:18:28;;;;;;;43.03;18.47;;;8.80;92.50;;;;;;5011960;28;20059;-75
2020/12/16 11:20:54;;;;;;;43.80;19.42;;;8.80;92.90;;;;;;5043175;28;20429;-75
2020/12/16 11:23:20;;;;;;;45.43;19.73;;;8.90;92.80;;;;;;5011117;28;20116;-75
2020/12/16 11:26:07;;;;;;;45.50;19.63;;;8.90;92.80;;;;;;4963440;28;20084;-75
2020/12/16 11:28:33;;;;;;;47.80;19.90;;;8.90;92.80;;;;;;5009574;28;20053;-75
2020/12/16 11:31:01;;;;;;;45.40;19.52;;;8.90;92.90;;;;;;5010719;28;20041;-75
2020/12/16 11:33:28;;;;;;;51.50;21.00;;;8.90;92.80;;;;;;5007799;28;20033;-75
2020/12/16 11:35:55;;;;;;;46.90;20.45;;;8.90;92.70;;;;;;5011156;28;20037;-75
2020/12/16 11:38:21;;;;;;;47.90;19.75;;;8.90;92.90;;;;;;5010290;28;20033;-75
2020/12/16 11:40:47;;;;;;;44.22;19.35;;;9.00;92.90;;;;;;4993272;28;20379;-75
2020/12/16 11:43:13;;;;;;;42.58;17.90;;;9.00;92.80;;;;;;5008002;28;20116;-75
2020/12/16 11:45:38;;;;;;;45.60;19.40;;;9.00;92.50;;;;;;5010562;28;20144;-75
2020/12/16 11:48:04;;;;;;;46.40;18.95;;;9.00;92.70;;;;;;5009850;28;20038;-74
2020/12/16 11:50:30;;;;;;;48.87;21.03;;;8.90;92.50;;;;;;4992629;28;20037;-75
2020/12/16 11:52:56;;;;;;;47.87;20.30;;;9.00;92.60;;;;;;5009448;28;20045;-75
2020/12/16 11:55:22;;;;;;;51.88;21.17;;;8.90;92.70;;;;;;5008147;28;20042;-74
2020/12/16 11:57:48;;;;;;;50.53;21.52;;;8.90;92.90;;;;;;5008957;28;20049;-75
2020/12/16 12:00:13;;;;;;;56.28;22.58;;;9.00;92.80;;;;;;5009515;28;20038;-75
2020/12/16 12:02:39;;;;;;;51.80;22.20;;;9.00;92.60;;;;;;5010481;28;20030;-74
2020/12/16 12:05:05;;;;;;;52.28;21.65;;;9.00;92.70;;;;;;5009990;28;20038;-75
2020/12/16 12:07:31;;;;;;;54.30;22.25;;;9.00;92.80;;;;;;5010608;28;20124;-75
2020/12/16 12:09:57;;;;;;;47.65;20.15;;;9.10;92.80;;;;;;5011162;28;20471;-75
2020/12/16 12:12:26;;;;;;;50.95;20.27;;;9.10;92.70;;;;;;5009947;28;20042;-75
2020/12/16 12:14:55;;;;;;;50.28;20.40;;;9.00;92.50;;;;;;5011010;28;20049;-75
2020/12/16 12:17:21;;;;;;;49.55;21.48;;;9.00;92.70;;;;;;4993343;28;20034;-75
2020/12/16 12:19:48;;;;;;;49.17;19.70;;;9.00;92.80;;;;;;5010448;28;20549;-75
2020/12/16 12:22:14;;;;;;;49.83;21.20;;;9.00;92.60;;;;;;5008738;28;20045;-75
2020/12/16 12:24:40;;;;;;;50.95;21.00;;;9.00;92.70;;;;;;5010556;28;20045;-75
2020/12/16 12:27:06;;;;;;;47.58;20.40;;;9.00;93.00;;;;;;5010871;28;20041;-75
2020/12/16 12:29:32;;;;;;;51.65;21.60;;;9.10;92.80;;;;;;4991490;28;20042;-75
2020/12/16 12:31:58;;;;;;;54.13;20.95;;;9.10;92.90;;;;;;5007624;28;20034;-75
2020/12/16 12:34:24;;;;;;;48.65;20.65;;;9.10;92.80;;;;;;4992374;28;20462;-75
2020/12/16 12:36:50;;;;;;;51.13;22.05;;;9.10;93.00;;;;;;5009999;28;20042;-74
2020/12/16 12:39:16;;;;;;;50.97;21.67;;;9.20;92.80;;;;;;5009794;28;20026;-74
2020/12/16 12:41:42;;;;;;;53.08;22.02;;;9.10;92.70;;;;;;5006575;28;20057;-75
2020/12/16 12:44:08;;;;;;;54.42;21.83;;;9.10;92.70;;;;;;4991120;28;20048;-74
2020/12/16 12:46:34;;;;;;;54.70;22.48;;;9.10;92.60;;;;;;4993133;28;20462;-75
2020/12/16 12:49:00;;;;;;;56.90;22.55;;;9.00;92.60;;;;;;5009344;28;20037;-74
2020/12/16 12:51:28;;;;;;;56.97;22.67;;;9.00;92.60;;;;;;5009698;28;20064;-74
2020/12/16 12:53:55;;;;;;;55.67;23.33;;;9.00;92.60;;;;;;5008235;28;20061;-75